sensor_id;sensor_type;location;lat;lon;timestamp;P1;durP1;ratioP1;P2;durP2;ratioP2
2602;SDS011;1311;47.966;7.958;2023-02-28T00:00:36;3.90;;;2.93;;
2602;SDS011;1311;47.966;7.958;2023-02-28T00:03:03;4.17;;;3.30;;
2602;SDS011;1311;47.966;7.958;2023-02-28T00:05:30;5.10;;;2.90;;
2602;SDS011;1311;47.966;7.958;2023-02-28T00:07:57;4.23;;;3.03;;
2602;SDS011;1311;47.966;7.958;2023-02-28T00:10:25;6.93;;;3.63;;
2602;SDS011;1311;47.966;7.958;2023-02-28T00:12:56;3.50;;;3.10;;
2602;SDS011;1311;47.966;7.958;2023-02-28T00:15:26;5.40;;;3.60;;
2602;SDS011;1311;47.966;7.958;2023-02-28T00:17:53;5.30;;;2.97;;
2602;SDS011;1311;47.966;7.958;2023-02-28T00:20:20;3.77;;;3.20;;
2602;SDS011;1311;47.966;7.958;2023-02-28T00:22:47;3.47;;;2.30;;
2602;SDS011;1311;47.966;7.958;2023-02-28T00:25:16;4.60;;;3.10;;
2602;SDS011;1311;47.966;7.958;2023-02-28T00:27:45;3.60;;;3.07;;
2602;SDS011;1311;47.966;7.958;2023-02-28T00:30:14;2.80;;;2.50;;
2602;SDS011;1311;47.966;7.958;2023-02-28T00:32:42;2.77;;;2.50;;
2602;SDS011;1311;47.966;7.958;2023-02-28T00:35:09;3.40;;;3.10;;
2602;SDS011;1311;47.966;7.958;2023-02-28T00:37:37;6.63;;;3.10;;
2602;SDS011;1311;47.966;7.958;2023-02-28T00:40:04;3.43;;;3.13;;
2602;SDS011;1311;47.966;7.958;2023-02-28T00:42:32;3.17;;;2.83;;
2602;SDS011;1311;47.966;7.958;2023-02-28T00:44:59;5.40;;;3.10;;
2602;SDS011;1311;47.966;7.958;2023-02-28T00:47:27;3.63;;;3.30;;
2602;SDS011;1311;47.966;7.958;2023-02-28T00:49:54;3.07;;;2.83;;
2602;SDS011;1311;47.966;7.958;2023-02-28T00:52:20;6.10;;;3.83;;
2602;SDS011;1311;47.966;7.958;2023-02-28T00:54:47;3.90;;;3.10;;
2602;SDS011;1311;47.966;7.958;2023-02-28T00:57:14;4.13;;;3.13;;
2602;SDS011;1311;47.966;7.958;2023-02-28T00:59:41;4.43;;;3.13;;
2602;SDS011;1311;47.966;7.958;2023-02-28T01:02:07;6.33;;;3.00;;
2602;SDS011;1311;47.966;7.958;2023-02-28T01:04:35;5.20;;;3.50;;
2602;SDS011;1311;47.966;7.958;2023-02-28T01:07:02;3.83;;;3.37;;
2602;SDS011;1311;47.966;7.958;2023-02-28T01:09:29;6.40;;;3.80;;
2602;SDS011;1311;47.966;7.958;2023-02-28T01:11:56;3.30;;;3.00;;
2602;SDS011;1311;47.966;7.958;2023-02-28T01:14:22;3.93;;;3.47;;
2602;SDS011;1311;47.966;7.958;2023-02-28T01:16:49;3.30;;;2.67;;
2602;SDS011;1311;47.966;7.958;2023-02-28T01:19:16;4.63;;;3.73;;
2602;SDS011;1311;47.966;7.958;2023-02-28T01:21:44;5.37;;;3.17;;
2602;SDS011;1311;47.966;7.958;2023-02-28T01:24:11;3.97;;;3.20;;
2602;SDS011;1311;47.966;7.958;2023-02-28T01:26:38;4.03;;;3.73;;
2602;SDS011;1311;47.966;7.958;2023-02-28T01:29:04;4.03;;;3.60;;
2602;SDS011;1311;47.966;7.958;2023-02-28T01:31:31;3.30;;;3.00;;
2602;SDS011;1311;47.966;7.958;2023-02-28T01:33:58;3.23;;;2.90;;
2602;SDS011;1311;47.966;7.958;2023-02-28T01:36:25;4.90;;;3.57;;
2602;SDS011;1311;47.966;7.958;2023-02-28T01:38:53;3.60;;;2.93;;
2602;SDS011;1311;47.966;7.958;2023-02-28T01:41:21;3.83;;;3.40;;
2602;SDS011;1311;47.966;7.958;2023-02-28T01:43:57;3.93;;;3.23;;
2602;SDS011;1311;47.966;7.958;2023-02-28T01:46:28;5.70;;;3.03;;
2602;SDS011;1311;47.966;7.958;2023-02-28T01:48:57;4.30;;;3.53;;
2602;SDS011;1311;47.966;7.958;2023-02-28T01:51:33;4.10;;;3.43;;
2602;SDS011;1311;47.966;7.958;2023-02-28T01:54:05;4.00;;;3.60;;
2602;SDS011;1311;47.966;7.958;2023-02-28T01:56:38;2.93;;;2.60;;
2602;SDS011;1311;47.966;7.958;2023-02-28T01:59:10;4.33;;;3.43;;
2602;SDS011;1311;47.966;7.958;2023-02-28T02:01:39;4.53;;;3.93;;
2602;SDS011;1311;47.966;7.958;2023-02-28T02:04:06;3.60;;;3.27;;
2602;SDS011;1311;47.966;7.958;2023-02-28T02:06:34;4.87;;;4.33;;
2602;SDS011;1311;47.966;7.958;2023-02-28T02:09:04;4.53;;;3.43;;
2602;SDS011;1311;47.966;7.958;2023-02-28T02:11:31;3.73;;;2.87;;
2602;SDS011;1311;47.966;7.958;2023-02-28T02:14:03;4.67;;;3.70;;
2602;SDS011;1311;47.966;7.958;2023-02-28T02:16:57;3.20;;;2.97;;
2602;SDS011;1311;47.966;7.958;2023-02-28T02:19:46;3.83;;;3.43;;
2602;SDS011;1311;47.966;7.958;2023-02-28T02:22:42;5.20;;;3.63;;
2602;SDS011;1311;47.966;7.958;2023-02-28T02:25:30;3.17;;;2.90;;
2602;SDS011;1311;47.966;7.958;2023-02-28T02:28:08;3.40;;;2.93;;
2602;SDS011;1311;47.966;7.958;2023-02-28T02:34:09;5.53;;;3.47;;
2602;SDS011;1311;47.966;7.958;2023-02-28T02:37:15;4.03;;;3.10;;
2602;SDS011;1311;47.966;7.958;2023-02-28T02:39:49;5.57;;;3.37;;
2602;SDS011;1311;47.966;7.958;2023-02-28T02:42:21;3.67;;;3.27;;
2602;SDS011;1311;47.966;7.958;2023-02-28T02:44:55;4.13;;;3.37;;
2602;SDS011;1311;47.966;7.958;2023-02-28T02:47:26;6.10;;;3.70;;
2602;SDS011;1311;47.966;7.958;2023-02-28T02:49:57;3.67;;;3.37;;
2602;SDS011;1311;47.966;7.958;2023-02-28T02:52:29;4.37;;;3.47;;
2602;SDS011;1311;47.966;7.958;2023-02-28T02:55:00;3.97;;;3.40;;
2602;SDS011;1311;47.966;7.958;2023-02-28T02:57:30;2.97;;;2.63;;
2602;SDS011;1311;47.966;7.958;2023-02-28T02:59:59;5.27;;;3.50;;
2602;SDS011;1311;47.966;7.958;2023-02-28T03:02:30;3.43;;;3.00;;
2602;SDS011;1311;47.966;7.958;2023-02-28T03:05:01;3.07;;;2.77;;
2602;SDS011;1311;47.966;7.958;2023-02-28T03:07:32;3.57;;;2.77;;
2602;SDS011;1311;47.966;7.958;2023-02-28T03:09:59;4.00;;;2.87;;
2602;SDS011;1311;47.966;7.958;2023-02-28T03:12:27;4.80;;;3.37;;
2602;SDS011;1311;47.966;7.958;2023-02-28T03:15:02;3.90;;;3.50;;
2602;SDS011;1311;47.966;7.958;2023-02-28T03:17:41;3.33;;;3.03;;
2602;SDS011;1311;47.966;7.958;2023-02-28T03:20:26;4.13;;;3.80;;
2602;SDS011;1311;47.966;7.958;2023-02-28T03:23:04;3.53;;;3.20;;
2602;SDS011;1311;47.966;7.958;2023-02-28T03:25:41;3.97;;;3.53;;
2602;SDS011;1311;47.966;7.958;2023-02-28T03:28:21;4.20;;;3.17;;
2602;SDS011;1311;47.966;7.958;2023-02-28T03:30:56;4.70;;;3.80;;
2602;SDS011;1311;47.966;7.958;2023-02-28T03:33:26;6.50;;;3.60;;
2602;SDS011;1311;47.966;7.958;2023-02-28T03:35:58;5.17;;;3.00;;
2602;SDS011;1311;47.966;7.958;2023-02-28T03:38:29;3.93;;;3.63;;
2602;SDS011;1311;47.966;7.958;2023-02-28T03:41:01;4.77;;;3.60;;
2602;SDS011;1311;47.966;7.958;2023-02-28T03:43:37;3.87;;;3.30;;
2602;SDS011;1311;47.966;7.958;2023-02-28T03:46:08;4.70;;;3.30;;
2602;SDS011;1311;47.966;7.958;2023-02-28T03:48:40;4.20;;;3.80;;
2602;SDS011;1311;47.966;7.958;2023-02-28T03:51:12;6.10;;;3.67;;
2602;SDS011;1311;47.966;7.958;2023-02-28T03:53:44;5.80;;;3.70;;
2602;SDS011;1311;47.966;7.958;2023-02-28T03:56:13;5.30;;;3.80;;
2602;SDS011;1311;47.966;7.958;2023-02-28T03:58:46;4.60;;;4.20;;
2602;SDS011;1311;47.966;7.958;2023-02-28T04:01:18;4.53;;;3.40;;
2602;SDS011;1311;47.966;7.958;2023-02-28T04:03:49;4.00;;;3.33;;
2602;SDS011;1311;47.966;7.958;2023-02-28T04:06:18;5.13;;;4.00;;
2602;SDS011;1311;47.966;7.958;2023-02-28T04:08:46;7.90;;;4.10;;
2602;SDS011;1311;47.966;7.958;2023-02-28T04:11:17;3.83;;;3.43;;
2602;SDS011;1311;47.966;7.958;2023-02-28T04:13:47;4.20;;;3.37;;
2602;SDS011;1311;47.966;7.958;2023-02-28T04:16:14;5.93;;;3.30;;
2602;SDS011;1311;47.966;7.958;2023-02-28T04:18:41;5.03;;;3.70;;
2602;SDS011;1311;47.966;7.958;2023-02-28T04:21:08;3.87;;;3.47;;
2602;SDS011;1311;47.966;7.958;2023-02-28T04:23:37;3.67;;;3.33;;
2602;SDS011;1311;47.966;7.958;2023-02-28T04:26:04;4.63;;;4.07;;
2602;SDS011;1311;47.966;7.958;2023-02-28T04:28:31;6.00;;;4.17;;
2602;SDS011;1311;47.966;7.958;2023-02-28T04:30:59;4.03;;;3.53;;
2602;SDS011;1311;47.966;7.958;2023-02-28T04:33:28;5.23;;;4.03;;
2602;SDS011;1311;47.966;7.958;2023-02-28T04:35:58;5.60;;;4.50;;
2602;SDS011;1311;47.966;7.958;2023-02-28T04:38:27;4.33;;;3.50;;
2602;SDS011;1311;47.966;7.958;2023-02-28T04:40:57;4.17;;;3.77;;
2602;SDS011;1311;47.966;7.958;2023-02-28T04:43:26;5.70;;;3.57;;
2602;SDS011;1311;47.966;7.958;2023-02-28T04:45:53;4.33;;;3.53;;
2602;SDS011;1311;47.966;7.958;2023-02-28T04:48:21;3.63;;;3.30;;
2602;SDS011;1311;47.966;7.958;2023-02-28T04:50:48;5.17;;;3.73;;
2602;SDS011;1311;47.966;7.958;2023-02-28T04:53:15;4.50;;;4.10;;
2602;SDS011;1311;47.966;7.958;2023-02-28T04:55:42;5.07;;;3.60;;
2602;SDS011;1311;47.966;7.958;2023-02-28T04:58:10;4.50;;;3.73;;
2602;SDS011;1311;47.966;7.958;2023-02-28T05:00:37;4.43;;;3.60;;
2602;SDS011;1311;47.966;7.958;2023-02-28T05:03:04;6.40;;;4.20;;
2602;SDS011;1311;47.966;7.958;2023-02-28T05:05:31;5.33;;;3.83;;
2602;SDS011;1311;47.966;7.958;2023-02-28T05:07:58;3.93;;;3.50;;
2602;SDS011;1311;47.966;7.958;2023-02-28T05:10:24;4.97;;;3.57;;
2602;SDS011;1311;47.966;7.958;2023-02-28T05:12:51;3.67;;;3.30;;
2602;SDS011;1311;47.966;7.958;2023-02-28T05:15:19;5.37;;;3.30;;
2602;SDS011;1311;47.966;7.958;2023-02-28T05:17:46;4.90;;;3.90;;
2602;SDS011;1311;47.966;7.958;2023-02-28T05:20:13;5.20;;;3.63;;
2602;SDS011;1311;47.966;7.958;2023-02-28T05:22:40;3.47;;;3.13;;
2602;SDS011;1311;47.966;7.958;2023-02-28T05:25:08;4.40;;;3.63;;
2602;SDS011;1311;47.966;7.958;2023-02-28T05:27:37;4.47;;;4.00;;
2602;SDS011;1311;47.966;7.958;2023-02-28T05:30:04;4.63;;;3.57;;
2602;SDS011;1311;47.966;7.958;2023-02-28T05:32:36;5.70;;;4.67;;
2602;SDS011;1311;47.966;7.958;2023-02-28T05:35:03;6.40;;;4.93;;
2602;SDS011;1311;47.966;7.958;2023-02-28T05:37:31;3.90;;;3.43;;
2602;SDS011;1311;47.966;7.958;2023-02-28T05:39:57;4.30;;;3.90;;
2602;SDS011;1311;47.966;7.958;2023-02-28T05:42:24;4.87;;;4.33;;
2602;SDS011;1311;47.966;7.958;2023-02-28T05:44:51;6.57;;;4.40;;
2602;SDS011;1311;47.966;7.958;2023-02-28T05:47:18;3.70;;;3.20;;
2602;SDS011;1311;47.966;7.958;2023-02-28T05:49:46;4.97;;;4.03;;
2602;SDS011;1311;47.966;7.958;2023-02-28T05:52:12;4.97;;;4.17;;
2602;SDS011;1311;47.966;7.958;2023-02-28T05:54:39;5.73;;;4.80;;
2602;SDS011;1311;47.966;7.958;2023-02-28T05:57:06;4.77;;;3.87;;
2602;SDS011;1311;47.966;7.958;2023-02-28T05:59:33;4.97;;;4.07;;
2602;SDS011;1311;47.966;7.958;2023-02-28T06:02:00;3.93;;;3.33;;
2602;SDS011;1311;47.966;7.958;2023-02-28T06:04:26;3.57;;;3.00;;
2602;SDS011;1311;47.966;7.958;2023-02-28T06:06:54;5.33;;;3.73;;
2602;SDS011;1311;47.966;7.958;2023-02-28T06:09:22;4.50;;;3.70;;
2602;SDS011;1311;47.966;7.958;2023-02-28T06:11:50;4.40;;;3.43;;
2602;SDS011;1311;47.966;7.958;2023-02-28T06:14:17;6.03;;;3.90;;
2602;SDS011;1311;47.966;7.958;2023-02-28T06:16:45;6.93;;;4.80;;
2602;SDS011;1311;47.966;7.958;2023-02-28T06:19:12;6.17;;;4.20;;
2602;SDS011;1311;47.966;7.958;2023-02-28T06:21:40;7.27;;;4.10;;
2602;SDS011;1311;47.966;7.958;2023-02-28T06:24:08;8.30;;;4.80;;
2602;SDS011;1311;47.966;7.958;2023-02-28T06:26:36;5.07;;;4.27;;
2602;SDS011;1311;47.966;7.958;2023-02-28T06:29:03;4.70;;;4.17;;
2602;SDS011;1311;47.966;7.958;2023-02-28T06:31:30;4.90;;;3.53;;
2602;SDS011;1311;47.966;7.958;2023-02-28T06:33:56;6.47;;;3.80;;
2602;SDS011;1311;47.966;7.958;2023-02-28T06:36:23;4.47;;;4.07;;
2602;SDS011;1311;47.966;7.958;2023-02-28T06:38:50;5.47;;;4.40;;
2602;SDS011;1311;47.966;7.958;2023-02-28T06:41:21;4.37;;;3.93;;
2602;SDS011;1311;47.966;7.958;2023-02-28T06:43:48;5.07;;;3.70;;
2602;SDS011;1311;47.966;7.958;2023-02-28T06:46:15;5.07;;;4.30;;
2602;SDS011;1311;47.966;7.958;2023-02-28T06:48:42;4.10;;;3.53;;
2602;SDS011;1311;47.966;7.958;2023-02-28T06:51:11;5.10;;;4.30;;
2602;SDS011;1311;47.966;7.958;2023-02-28T06:53:40;4.60;;;4.17;;
2602;SDS011;1311;47.966;7.958;2023-02-28T06:56:07;6.53;;;4.53;;
2602;SDS011;1311;47.966;7.958;2023-02-28T06:58:37;8.50;;;4.20;;
2602;SDS011;1311;47.966;7.958;2023-02-28T07:01:05;5.40;;;4.23;;
2602;SDS011;1311;47.966;7.958;2023-02-28T07:03:34;7.27;;;5.50;;
2602;SDS011;1311;47.966;7.958;2023-02-28T07:06:01;3.97;;;3.50;;
2602;SDS011;1311;47.966;7.958;2023-02-28T07:08:29;4.80;;;3.90;;
2602;SDS011;1311;47.966;7.958;2023-02-28T07:10:56;6.77;;;4.73;;
2602;SDS011;1311;47.966;7.958;2023-02-28T07:13:24;7.77;;;5.40;;
2602;SDS011;1311;47.966;7.958;2023-02-28T07:15:56;4.60;;;4.20;;
2602;SDS011;1311;47.966;7.958;2023-02-28T07:18:24;4.13;;;3.77;;
2602;SDS011;1311;47.966;7.958;2023-02-28T07:20:51;5.60;;;3.80;;
2602;SDS011;1311;47.966;7.958;2023-02-28T07:23:18;4.37;;;3.47;;
2602;SDS011;1311;47.966;7.958;2023-02-28T07:25:45;4.50;;;3.97;;
2602;SDS011;1311;47.966;7.958;2023-02-28T07:28:12;3.80;;;3.50;;
2602;SDS011;1311;47.966;7.958;2023-02-28T07:30:40;4.50;;;4.10;;
2602;SDS011;1311;47.966;7.958;2023-02-28T07:33:08;4.73;;;3.90;;
2602;SDS011;1311;47.966;7.958;2023-02-28T07:35:35;4.73;;;4.30;;
2602;SDS011;1311;47.966;7.958;2023-02-28T07:38:02;4.80;;;3.87;;
2602;SDS011;1311;47.966;7.958;2023-02-28T07:40:29;6.30;;;4.47;;
2602;SDS011;1311;47.966;7.958;2023-02-28T07:42:56;4.20;;;3.80;;
2602;SDS011;1311;47.966;7.958;2023-02-28T07:45:25;5.30;;;3.67;;
2602;SDS011;1311;47.966;7.958;2023-02-28T07:47:51;5.33;;;4.87;;
2602;SDS011;1311;47.966;7.958;2023-02-28T07:50:20;6.80;;;5.57;;
2602;SDS011;1311;47.966;7.958;2023-02-28T07:52:47;6.87;;;5.17;;
2602;SDS011;1311;47.966;7.958;2023-02-28T07:55:14;8.20;;;5.70;;
2602;SDS011;1311;47.966;7.958;2023-02-28T07:57:41;8.17;;;5.97;;
2602;SDS011;1311;47.966;7.958;2023-02-28T08:00:09;8.00;;;6.03;;
2602;SDS011;1311;47.966;7.958;2023-02-28T08:02:37;7.53;;;5.87;;
2602;SDS011;1311;47.966;7.958;2023-02-28T08:05:04;7.77;;;5.67;;
2602;SDS011;1311;47.966;7.958;2023-02-28T08:07:33;8.00;;;5.90;;
2602;SDS011;1311;47.966;7.958;2023-02-28T08:10:00;7.37;;;5.50;;
2602;SDS011;1311;47.966;7.958;2023-02-28T08:12:27;7.90;;;5.73;;
2602;SDS011;1311;47.966;7.958;2023-02-28T08:14:54;6.73;;;4.83;;
2602;SDS011;1311;47.966;7.958;2023-02-28T08:17:20;7.83;;;5.57;;
2602;SDS011;1311;47.966;7.958;2023-02-28T08:19:47;8.00;;;5.80;;
2602;SDS011;1311;47.966;7.958;2023-02-28T08:22:14;8.20;;;5.30;;
2602;SDS011;1311;47.966;7.958;2023-02-28T08:24:42;6.90;;;5.20;;
2602;SDS011;1311;47.966;7.958;2023-02-28T08:27:09;8.50;;;5.77;;
2602;SDS011;1311;47.966;7.958;2023-02-28T08:29:36;6.63;;;5.80;;
2602;SDS011;1311;47.966;7.958;2023-02-28T08:32:04;7.80;;;5.20;;
2602;SDS011;1311;47.966;7.958;2023-02-28T08:34:30;9.47;;;6.90;;
2602;SDS011;1311;47.966;7.958;2023-02-28T08:36:57;10.37;;;6.23;;
2602;SDS011;1311;47.966;7.958;2023-02-28T08:39:24;8.97;;;5.67;;
2602;SDS011;1311;47.966;7.958;2023-02-28T08:41:52;7.77;;;5.23;;
2602;SDS011;1311;47.966;7.958;2023-02-28T08:44:19;8.30;;;5.90;;
2602;SDS011;1311;47.966;7.958;2023-02-28T08:46:46;7.80;;;5.50;;
2602;SDS011;1311;47.966;7.958;2023-02-28T08:49:14;8.13;;;5.57;;
2602;SDS011;1311;47.966;7.958;2023-02-28T08:51:41;6.20;;;5.03;;
2602;SDS011;1311;47.966;7.958;2023-02-28T08:54:08;9.60;;;5.13;;
2602;SDS011;1311;47.966;7.958;2023-02-28T08:56:37;6.67;;;5.30;;
2602;SDS011;1311;47.966;7.958;2023-02-28T08:59:05;7.10;;;6.40;;
2602;SDS011;1311;47.966;7.958;2023-02-28T09:01:32;8.33;;;5.77;;
2602;SDS011;1311;47.966;7.958;2023-02-28T09:03:59;6.77;;;5.40;;
2602;SDS011;1311;47.966;7.958;2023-02-28T09:06:27;8.83;;;5.50;;
2602;SDS011;1311;47.966;7.958;2023-02-28T09:08:56;9.33;;;5.47;;
2602;SDS011;1311;47.966;7.958;2023-02-28T09:11:24;10.10;;;6.40;;
2602;SDS011;1311;47.966;7.958;2023-02-28T09:13:51;10.80;;;7.43;;
2602;SDS011;1311;47.966;7.958;2023-02-28T09:16:19;7.33;;;5.67;;
2602;SDS011;1311;47.966;7.958;2023-02-28T09:18:45;7.40;;;5.43;;
2602;SDS011;1311;47.966;7.958;2023-02-28T09:21:13;9.00;;;6.10;;
2602;SDS011;1311;47.966;7.958;2023-02-28T09:23:42;8.33;;;5.50;;
2602;SDS011;1311;47.966;7.958;2023-02-28T09:26:12;6.03;;;5.43;;
2602;SDS011;1311;47.966;7.958;2023-02-28T09:28:40;6.97;;;5.40;;
2602;SDS011;1311;47.966;7.958;2023-02-28T09:31:10;8.23;;;6.00;;
2602;SDS011;1311;47.966;7.958;2023-02-28T09:33:40;7.67;;;5.33;;
2602;SDS011;1311;47.966;7.958;2023-02-28T09:36:07;7.33;;;5.90;;
2602;SDS011;1311;47.966;7.958;2023-02-28T09:38:34;7.57;;;5.67;;
2602;SDS011;1311;47.966;7.958;2023-02-28T09:41:01;8.00;;;5.60;;
2602;SDS011;1311;47.966;7.958;2023-02-28T09:43:31;7.87;;;6.03;;
2602;SDS011;1311;47.966;7.958;2023-02-28T09:46:02;6.80;;;5.47;;
2602;SDS011;1311;47.966;7.958;2023-02-28T09:48:36;6.40;;;5.10;;
2602;SDS011;1311;47.966;7.958;2023-02-28T09:51:12;8.70;;;5.63;;
2602;SDS011;1311;47.966;7.958;2023-02-28T09:53:48;7.70;;;5.53;;
2602;SDS011;1311;47.966;7.958;2023-02-28T09:56:18;7.03;;;5.40;;
2602;SDS011;1311;47.966;7.958;2023-02-28T09:58:51;6.07;;;5.00;;
2602;SDS011;1311;47.966;7.958;2023-02-28T10:01:24;5.73;;;5.17;;
2602;SDS011;1311;47.966;7.958;2023-02-28T10:03:58;7.37;;;5.73;;
2602;SDS011;1311;47.966;7.958;2023-02-28T10:06:28;9.17;;;5.87;;
2602;SDS011;1311;47.966;7.958;2023-02-28T10:09:00;11.63;;;7.60;;
2602;SDS011;1311;47.966;7.958;2023-02-28T10:11:29;10.33;;;8.07;;
2602;SDS011;1311;47.966;7.958;2023-02-28T10:14:00;11.20;;;7.47;;
2602;SDS011;1311;47.966;7.958;2023-02-28T10:16:31;10.20;;;6.30;;
2602;SDS011;1311;47.966;7.958;2023-02-28T10:19:04;14.47;;;9.30;;
2602;SDS011;1311;47.966;7.958;2023-02-28T10:21:38;11.40;;;7.77;;
2602;SDS011;1311;47.966;7.958;2023-02-28T10:24:13;8.60;;;6.97;;
2602;SDS011;1311;47.966;7.958;2023-02-28T10:26:47;5.57;;;5.07;;
2602;SDS011;1311;47.966;7.958;2023-02-28T10:29:14;7.53;;;5.80;;
2602;SDS011;1311;47.966;7.958;2023-02-28T10:31:41;6.47;;;5.80;;
2602;SDS011;1311;47.966;7.958;2023-02-28T10:34:10;7.40;;;5.23;;
2602;SDS011;1311;47.966;7.958;2023-02-28T10:36:39;8.90;;;6.07;;
2602;SDS011;1311;47.966;7.958;2023-02-28T10:45:04;6.20;;;5.60;;
2602;SDS011;1311;47.966;7.958;2023-02-28T10:47:33;9.10;;;5.50;;
2602;SDS011;1311;47.966;7.958;2023-02-28T10:50:04;7.13;;;5.93;;
2602;SDS011;1311;47.966;7.958;2023-02-28T10:52:32;7.67;;;5.70;;
2602;SDS011;1311;47.966;7.958;2023-02-28T10:55:19;5.70;;;5.10;;
2602;SDS011;1311;47.966;7.958;2023-02-28T10:57:48;7.90;;;5.60;;
2602;SDS011;1311;47.966;7.958;2023-02-28T11:00:16;11.73;;;5.97;;
2602;SDS011;1311;47.966;7.958;2023-02-28T11:02:45;7.57;;;5.63;;
2602;SDS011;1311;47.966;7.958;2023-02-28T11:05:26;6.97;;;6.00;;
2602;SDS011;1311;47.966;7.958;2023-02-28T11:07:55;6.97;;;6.03;;
2602;SDS011;1311;47.966;7.958;2023-02-28T11:10:26;9.30;;;5.83;;
2602;SDS011;1311;47.966;7.958;2023-02-28T11:12:57;8.47;;;6.40;;
2602;SDS011;1311;47.966;7.958;2023-02-28T11:15:25;7.50;;;5.70;;
2602;SDS011;1311;47.966;7.958;2023-02-28T11:17:55;8.43;;;6.53;;
2602;SDS011;1311;47.966;7.958;2023-02-28T11:20:26;8.33;;;5.83;;
2602;SDS011;1311;47.966;7.958;2023-02-28T11:22:55;9.60;;;6.67;;
2602;SDS011;1311;47.966;7.958;2023-02-28T11:25:23;6.60;;;5.77;;
2602;SDS011;1311;47.966;7.958;2023-02-28T11:27:52;10.90;;;6.60;;
2602;SDS011;1311;47.966;7.958;2023-02-28T11:30:23;6.90;;;5.40;;
2602;SDS011;1311;47.966;7.958;2023-02-28T11:32:55;6.83;;;6.03;;
2602;SDS011;1311;47.966;7.958;2023-02-28T11:35:23;8.03;;;6.70;;
2602;SDS011;1311;47.966;7.958;2023-02-28T11:37:56;6.70;;;5.80;;
2602;SDS011;1311;47.966;7.958;2023-02-28T11:40:25;6.70;;;5.67;;
2602;SDS011;1311;47.966;7.958;2023-02-28T11:42:59;6.80;;;6.00;;
2602;SDS011;1311;47.966;7.958;2023-02-28T11:45:51;8.27;;;6.60;;
2602;SDS011;1311;47.966;7.958;2023-02-28T11:48:30;11.60;;;7.07;;
2602;SDS011;1311;47.966;7.958;2023-02-28T11:51:06;8.97;;;7.30;;
2602;SDS011;1311;47.966;7.958;2023-02-28T11:53:50;9.40;;;7.00;;
2602;SDS011;1311;47.966;7.958;2023-02-28T11:56:32;10.90;;;8.23;;
2602;SDS011;1311;47.966;7.958;2023-02-28T11:59:16;9.07;;;6.60;;
2602;SDS011;1311;47.966;7.958;2023-02-28T12:04:52;7.50;;;6.70;;
2602;SDS011;1311;47.966;7.958;2023-02-28T12:07:37;8.43;;;6.43;;
2602;SDS011;1311;47.966;7.958;2023-02-28T12:10:17;8.70;;;6.47;;
2602;SDS011;1311;47.966;7.958;2023-02-28T12:12:49;8.37;;;6.47;;
2602;SDS011;1311;47.966;7.958;2023-02-28T12:15:33;8.47;;;6.83;;
2602;SDS011;1311;47.966;7.958;2023-02-28T12:18:19;9.70;;;6.77;;
2602;SDS011;1311;47.966;7.958;2023-02-28T12:21:08;7.13;;;6.40;;
2602;SDS011;1311;47.966;7.958;2023-02-28T12:23:54;7.17;;;5.93;;
2602;SDS011;1311;47.966;7.958;2023-02-28T12:26:42;8.67;;;7.30;;
2602;SDS011;1311;47.966;7.958;2023-02-28T12:29:12;8.60;;;6.77;;
2602;SDS011;1311;47.966;7.958;2023-02-28T12:31:45;7.30;;;6.27;;
2602;SDS011;1311;47.966;7.958;2023-02-28T12:34:18;9.03;;;7.20;;
2602;SDS011;1311;47.966;7.958;2023-02-28T12:36:48;7.73;;;6.70;;
2602;SDS011;1311;47.966;7.958;2023-02-28T12:39:20;6.70;;;6.00;;
2602;SDS011;1311;47.966;7.958;2023-02-28T12:41:53;8.50;;;6.77;;
2602;SDS011;1311;47.966;7.958;2023-02-28T12:44:25;9.10;;;6.93;;
2602;SDS011;1311;47.966;7.958;2023-02-28T12:46:58;7.10;;;6.40;;
2602;SDS011;1311;47.966;7.958;2023-02-28T12:49:30;7.43;;;6.63;;
2602;SDS011;1311;47.966;7.958;2023-02-28T12:52:00;9.33;;;7.17;;
2602;SDS011;1311;47.966;7.958;2023-02-28T12:54:32;8.00;;;7.20;;
2602;SDS011;1311;47.966;7.958;2023-02-28T12:57:07;8.80;;;6.87;;
2602;SDS011;1311;47.966;7.958;2023-02-28T12:59:39;7.27;;;6.50;;
2602;SDS011;1311;47.966;7.958;2023-02-28T13:08:12;7.93;;;6.40;;
2602;SDS011;1311;47.966;7.958;2023-02-28T13:10:59;7.90;;;6.60;;
2602;SDS011;1311;47.966;7.958;2023-02-28T13:13:27;9.43;;;7.20;;
2602;SDS011;1311;47.966;7.958;2023-02-28T13:16:00;8.63;;;7.10;;
2602;SDS011;1311;47.966;7.958;2023-02-28T13:18:33;7.80;;;7.00;;
2602;SDS011;1311;47.966;7.958;2023-02-28T13:21:04;8.37;;;6.80;;
2602;SDS011;1311;47.966;7.958;2023-02-28T13:23:37;9.70;;;7.83;;
2602;SDS011;1311;47.966;7.958;2023-02-28T13:26:08;8.70;;;7.43;;
2602;SDS011;1311;47.966;7.958;2023-02-28T13:28:57;8.73;;;7.30;;
2602;SDS011;1311;47.966;7.958;2023-02-28T13:31:25;8.03;;;6.90;;
2602;SDS011;1311;47.966;7.958;2023-02-28T13:34:05;9.43;;;7.43;;
2602;SDS011;1311;47.966;7.958;2023-02-28T13:36:41;7.97;;;7.17;;
2602;SDS011;1311;47.966;7.958;2023-02-28T13:42:23;8.40;;;7.17;;
2602;SDS011;1311;47.966;7.958;2023-02-28T13:45:21;8.50;;;6.77;;
2602;SDS011;1311;47.966;7.958;2023-02-28T13:47:53;11.47;;;7.50;;
2602;SDS011;1311;47.966;7.958;2023-02-28T13:50:23;7.50;;;6.70;;
2602;SDS011;1311;47.966;7.958;2023-02-28T13:53:21;10.33;;;8.50;;
2602;SDS011;1311;47.966;7.958;2023-02-28T13:56:06;8.63;;;6.90;;
2602;SDS011;1311;47.966;7.958;2023-02-28T13:58:52;7.87;;;6.47;;
2602;SDS011;1311;47.966;7.958;2023-02-28T14:07:03;7.10;;;6.40;;
2602;SDS011;1311;47.966;7.958;2023-02-28T14:09:31;8.87;;;7.50;;
2602;SDS011;1311;47.966;7.958;2023-02-28T14:15:02;9.37;;;7.87;;
2602;SDS011;1311;47.966;7.958;2023-02-28T14:17:31;8.47;;;7.00;;
2602;SDS011;1311;47.966;7.958;2023-02-28T14:19:58;9.93;;;7.10;;
2602;SDS011;1311;47.966;7.958;2023-02-28T14:22:35;9.50;;;7.50;;
2602;SDS011;1311;47.966;7.958;2023-02-28T14:25:16;8.27;;;6.93;;
2602;SDS011;1311;47.966;7.958;2023-02-28T14:27:49;10.37;;;7.60;;
2602;SDS011;1311;47.966;7.958;2023-02-28T14:33:25;8.83;;;7.30;;
2602;SDS011;1311;47.966;7.958;2023-02-28T14:36:03;8.93;;;7.47;;
2602;SDS011;1311;47.966;7.958;2023-02-28T14:38:34;9.93;;;7.63;;
2602;SDS011;1311;47.966;7.958;2023-02-28T14:41:12;9.33;;;7.77;;
2602;SDS011;1311;47.966;7.958;2023-02-28T14:43:49;10.97;;;7.37;;
2602;SDS011;1311;47.966;7.958;2023-02-28T14:46:19;7.97;;;7.17;;
2602;SDS011;1311;47.966;7.958;2023-02-28T14:48:47;9.80;;;7.67;;
2602;SDS011;1311;47.966;7.958;2023-02-28T14:51:18;9.87;;;7.70;;
2602;SDS011;1311;47.966;7.958;2023-02-28T14:53:48;8.63;;;7.73;;
2602;SDS011;1311;47.966;7.958;2023-02-28T14:56:21;9.80;;;7.70;;
2602;SDS011;1311;47.966;7.958;2023-02-28T14:58:51;10.40;;;7.13;;
2602;SDS011;1311;47.966;7.958;2023-02-28T15:01:21;9.77;;;7.70;;
2602;SDS011;1311;47.966;7.958;2023-02-28T15:03:56;10.00;;;7.50;;
2602;SDS011;1311;47.966;7.958;2023-02-28T15:06:26;10.47;;;7.43;;
2602;SDS011;1311;47.966;7.958;2023-02-28T15:09:14;10.90;;;7.70;;
2602;SDS011;1311;47.966;7.958;2023-02-28T15:11:44;11.23;;;8.13;;
2602;SDS011;1311;47.966;7.958;2023-02-28T15:14:14;9.23;;;7.83;;
2602;SDS011;1311;47.966;7.958;2023-02-28T15:16:47;9.77;;;6.90;;
2602;SDS011;1311;47.966;7.958;2023-02-28T15:19:19;10.70;;;7.60;;
2602;SDS011;1311;47.966;7.958;2023-02-28T15:21:50;7.70;;;6.87;;
2602;SDS011;1311;47.966;7.958;2023-02-28T15:24:26;10.30;;;7.97;;
2602;SDS011;1311;47.966;7.958;2023-02-28T15:27:03;10.13;;;7.73;;
2602;SDS011;1311;47.966;7.958;2023-02-28T15:29:34;11.40;;;7.80;;
2602;SDS011;1311;47.966;7.958;2023-02-28T15:32:16;10.67;;;8.13;;
2602;SDS011;1311;47.966;7.958;2023-02-28T15:34:50;11.33;;;7.80;;
2602;SDS011;1311;47.966;7.958;2023-02-28T15:37:27;10.87;;;7.50;;
2602;SDS011;1311;47.966;7.958;2023-02-28T15:39:56;10.50;;;7.97;;
2602;SDS011;1311;47.966;7.958;2023-02-28T15:42:27;10.97;;;7.83;;
2602;SDS011;1311;47.966;7.958;2023-02-28T15:44:56;10.70;;;8.13;;
2602;SDS011;1311;47.966;7.958;2023-02-28T15:47:27;9.60;;;7.77;;
2602;SDS011;1311;47.966;7.958;2023-02-28T15:49:56;10.73;;;7.10;;
2602;SDS011;1311;47.966;7.958;2023-02-28T15:52:27;9.00;;;7.00;;
2602;SDS011;1311;47.966;7.958;2023-02-28T15:55:06;10.13;;;7.47;;
2602;SDS011;1311;47.966;7.958;2023-02-28T15:57:38;10.00;;;7.77;;
2602;SDS011;1311;47.966;7.958;2023-02-28T16:00:09;9.73;;;7.90;;
2602;SDS011;1311;47.966;7.958;2023-02-28T16:02:54;8.53;;;7.13;;
2602;SDS011;1311;47.966;7.958;2023-02-28T16:05:23;11.07;;;7.70;;
2602;SDS011;1311;47.966;7.958;2023-02-28T16:07:55;14.90;;;10.40;;
2602;SDS011;1311;47.966;7.958;2023-02-28T16:10:25;13.80;;;9.30;;